Time;durP1;ratioP1;P1;durP2;ratioP2;P2;SDS_P1;SDS_P2;PMS_P1;PMS_P2;Temp;Humidity;BMP_temperature;BMP_pressure;BME280_temperature;BME280_humidity;BME280_pressure;Samples;Min_cycle;Max_cycle;Signal;HPM_P1;HPM_P2
2023/08/29 00:01:47;;;;;;;10.60;5.00;;;;;;;27.87;53.50;98215.06;4370137;32;33977;-70
2023/08/29 00:04:15;;;;;;;14.73;5.90;;;;;;;27.86;53.92;98202.41;4369446;32;33989;-70
2023/08/29 00:06:43;;;;;;;9.85;6.15;;;;;;;27.87;53.82;98203.25;4371814;32;33701;-72
2023/08/29 00:09:10;;;;;;;12.57;5.25;;;;;;;27.94;53.93;98200.25;4367272;32;33888;-71
2023/08/29 00:11:38;;;;;;;11.18;5.65;;;;;;;27.86;54.14;98209.81;4369209;32;34614;-73
2023/08/29 00:14:05;;;;;;;7.20;4.40;;;;;;;27.72;53.92;98206.66;4356463;32;33470;-73
2023/08/29 00:16:33;;;;;;;12.35;5.53;;;;;;;27.86;53.44;98209.81;4373343;32;33814;-74
2023/08/29 00:19:01;;;;;;;9.93;5.18;;;;;;;27.87;53.45;98222.50;4362381;32;33759;-75
2023/08/29 00:21:29;;;;;;;8.18;4.70;;;;;;;27.87;53.25;98200.50;4374492;32;34728;-75
2023/08/29 00:23:56;;;;;;;12.18;4.75;;;;;;;27.79;53.24;98207.28;4374820;32;35240;-75
2023/08/29 00:26:24;;;;;;;7.30;3.90;;;;;;;27.89;53.08;98213.97;4370336;32;33412;-75
2023/08/29 00:28:53;;;;;;;9.27;4.82;;;;;;;27.84;53.06;98225.75;4374573;32;33470;-75
2023/08/29 00:31:21;;;;;;;14.60;5.95;;;;;;;27.76;52.60;98232.53;4366196;32;34560;-76
2023/08/29 00:33:49;;;;;;;12.20;5.43;;;;;;;27.78;52.32;98238.63;4367787;32;33676;-76
2023/08/29 00:36:16;;;;;;;8.30;4.18;;;;;;;27.73;52.93;98240.47;4369827;32;33058;-71
2023/08/29 00:38:44;;;;;;;11.27;4.75;;;;;;;27.47;53.12;98267.72;4373442;32;34910;-70
2023/08/29 00:41:12;;;;;;;12.13;5.30;;;;;;;27.70;52.90;98268.47;4369068;32;33865;-70
2023/08/29 00:43:40;;;;;;;10.98;5.90;;;;;;;27.69;52.55;98273.16;4364928;32;34830;-71
2023/08/29 00:46:07;;;;;;;10.52;5.43;;;;;;;27.67;52.79;98280.00;4364653;32;33405;-71
2023/08/29 00:48:35;;;;;;;9.70;5.50;;;;;;;27.54;52.90;98289.50;4360517;32;33846;-70
2023/08/29 00:51:03;;;;;;;9.15;5.28;;;;;;;27.57;53.07;98259.56;4366065;32;34144;-74
2023/08/29 00:53:33;;;;;;;8.55;4.12;;;;;;;27.53;53.76;98260.38;4372215;32;34662;-73
2023/08/29 00:56:02;;;;;;;7.37;3.83;;;;;;;27.57;53.79;98289.81;4368707;32;33562;-74
2023/08/29 00:58:30;;;;;;;7.05;4.12;;;;;;;27.64;53.14;98306.94;4346134;32;33809;-74
2023/08/29 01:00:58;;;;;;;11.23;4.93;;;;;;;27.44;53.52;98317.69;4352286;32;32994;-74
2023/08/29 01:03:26;;;;;;;14.43;4.57;;;;;;;27.45;53.32;98327.62;4354574;32;34873;-74
2023/08/29 01:05:54;;;;;;;7.80;5.03;;;;;;;27.64;53.02;98337.16;4348042;32;33637;-73
2023/08/29 01:08:22;;;;;;;8.88;4.50;;;;;;;27.59;53.14;98345.34;4351139;32;33371;-72
2023/08/29 01:11:19;;;;;;;10.20;5.50;;;;;;;27.61;52.86;98340.44;4351860;32;34631;-73
2023/08/29 01:14:05;;;;;;;11.43;4.78;;;;;;;27.44;53.54;98328.69;4354910;32;33693;-73
2023/08/29 01:16:36;;;;;;;11.65;5.93;;;;;;;27.39;53.62;98315.75;4349075;32;33339;-73
2023/08/29 01:19:08;;;;;;;17.83;5.62;;;;;;;26.92;55.17;98312.69;4343470;32;33476;-73
2023/08/29 01:21:40;;;;;;;9.68;5.85;;;;;;;27.02;54.79;98296.34;4334660;32;34045;-73
2023/08/29 01:24:13;;;;;;;15.15;6.40;;;;;;;26.97;55.20;98295.44;4344434;33;33763;-73
2023/08/29 01:26:43;;;;;;;11.07;6.22;;;;;;;27.31;54.21;98268.66;4332782;33;33324;-73
2023/08/29 01:29:10;;;;;;;11.38;5.35;;;;;;;26.48;56.99;98260.50;4339674;33;33688;-72
2023/08/29 01:31:38;;;;;;;8.75;5.18;;;;;;;26.61;56.85;98265.66;4323370;32;33632;-73
2023/08/29 01:34:06;;;;;;;10.43;6.47;;;;;;;26.95;55.75;98269.06;4357575;32;34095;-73
2023/08/29 01:36:42;;;;;;;11.45;5.12;;;;;;;26.79;56.12;98261.75;4354339;32;33191;-73
2023/08/29 01:39:10;;;;;;;14.13;7.47;;;;;;;26.47;56.65;98243.19;4356100;32;33711;-73
2023/08/29 01:41:39;;;;;;;10.98;5.45;;;;;;;26.76;55.62;98250.44;4359616;32;34016;-74
2023/08/29 01:44:06;;;;;;;13.98;5.20;;;;;;;27.16;54.37;98239.16;4358888;32;35182;-73
2023/08/29 01:46:34;;;;;;;10.77;5.37;;;;;;;27.33;53.93;98222.56;4349460;32;33376;-74
2023/08/29 01:49:02;;;;;;;10.10;5.72;;;;;;;27.31;54.15;98221.97;4356369;32;33862;-73
2023/08/29 01:51:30;;;;;;;11.15;7.20;;;;;;;27.35;53.65;98215.72;4353955;32;34992;-73
2023/08/29 01:53:58;;;;;;;7.50;4.15;;;;;;;27.09;54.22;98206.34;4355147;32;33746;-72
2023/08/29 01:56:28;;;;;;;12.07;6.28;;;;;;;27.26;53.76;98221.94;4352695;32;35334;-73
2023/08/29 01:58:56;;;;;;;9.52;5.53;;;;;;;27.27;53.99;98223.59;4346609;32;33602;-72
2023/08/29 02:01:24;;;;;;;9.18;5.25;;;;;;;27.23;54.12;98230.69;4351188;32;33887;-73
2023/08/29 02:03:52;;;;;;;11.38;5.03;;;;;;;27.06;54.56;98236.22;4374627;32;33872;-73
2023/08/29 02:06:20;;;;;;;13.00;6.35;;;;;;;27.03;54.66;98247.72;4359988;32;33116;-72
2023/08/29 02:08:47;;;;;;;9.38;4.43;;;;;;;26.80;55.18;98273.53;4375137;32;33882;-73
2023/08/29 02:11:15;;;;;;;12.15;4.97;;;;;;;26.77;55.40;98274.06;4370385;32;35261;-73
2023/08/29 02:13:43;;;;;;;8.98;5.30;;;;;;;26.59;55.93;98278.78;4370510;32;35099;-73
2023/08/29 02:16:11;;;;;;;12.18;5.30;;;;;;;26.59;55.82;98270.56;4373839;32;33176;-74
2023/08/29 02:18:39;;;;;;;9.48;5.05;;;;;;;26.65;55.57;98272.28;4374390;32;33248;-73
2023/08/29 02:21:07;;;;;;;8.90;5.12;;;;;;;26.65;55.74;98258.56;4372751;32;33581;-73
2023/08/29 02:23:34;;;;;;;9.25;5.20;;;;;;;26.67;55.83;98248.13;4369971;32;34155;-73
2023/08/29 02:26:03;;;;;;;8.68;4.85;;;;;;;26.70;55.55;98253.13;4365769;32;32972;-73
2023/08/29 02:28:35;;;;;;;8.48;5.50;;;;;;;26.75;55.42;98244.12;4356832;32;35361;-73
2023/08/29 02:31:03;;;;;;;9.20;5.32;;;;;;;26.77;55.51;98216.41;4374023;32;33726;-72
2023/08/29 02:33:34;;;;;;;8.02;4.60;;;;;;;26.77;55.49;98213.69;4369787;32;34430;-73
2023/08/29 02:36:04;;;;;;;11.43;5.93;;;;;;;26.79;55.63;98208.78;4368697;32;34693;-73
2023/08/29 02:38:33;;;;;;;14.43;6.30;;;;;;;26.47;56.56;98202.03;4370086;32;33553;-72
2023/08/29 02:41:00;;;;;;;12.70;8.68;;;;;;;26.58;56.29;98188.47;4366092;32;33525;-72
2023/08/29 02:43:28;;;;;;;14.18;5.53;;;;;;;26.48;56.55;98181.81;4362886;32;35276;-73
2023/08/29 02:45:57;;;;;;;11.95;5.40;;;;;;;26.62;56.05;98195.13;4375214;32;34834;-74
2023/08/29 02:48:24;;;;;;;8.70;5.18;;;;;;;26.48;56.43;98183.69;4375157;32;33664;-74
2023/08/29 02:50:52;;;;;;;9.93;5.80;;;;;;;26.50;56.39;98189.78;4358055;32;34103;-71
2023/08/29 02:53:21;;;;;;;9.63;5.65;;;;;;;26.44;56.57;98190.75;4368986;32;34821;-72
2023/08/29 02:55:52;;;;;;;9.43;5.28;;;;;;;26.41;56.30;98185.78;4363757;32;33414;-70
2023/08/29 02:58:20;;;;;;;11.12;7.40;;;;;;;26.40;56.23;98190.44;4370604;32;35067;-70
2023/08/29 03:00:57;;;;;;;15.65;6.85;;;;;;;26.32;56.20;98187.31;4370022;32;33618;-71
2023/08/29 03:03:26;;;;;;;12.32;5.28;;;;;;;26.40;55.74;98187.69;4370252;32;33851;-72
2023/08/29 03:05:54;;;;;;;8.82;4.95;;;;;;;26.45;55.68;98190.53;4363810;32;33548;-71
2023/08/29 03:08:22;;;;;;;10.48;5.95;;;;;;;26.46;55.78;98200.41;4372633;32;33558;-73
2023/08/29 03:10:51;;;;;;;6.78;4.78;;;;;;;26.51;55.62;98194.16;4372788;32;34037;-74
2023/08/29 03:13:19;;;;;;;8.98;5.10;;;;;;;26.53;55.71;98199.41;4368418;32;35283;-74
2023/08/29 03:15:47;;;;;;;8.35;4.20;;;;;;;26.51;55.62;98196.91;4364254;32;33500;-74
2023/08/29 03:18:17;;;;;;;6.72;3.90;;;;;;;26.50;55.69;98203.50;4370643;32;34547;-74
2023/08/29 03:20:44;;;;;;;11.07;4.78;;;;;;;26.53;55.38;98200.25;4370681;32;33822;-73
2023/08/29 03:23:12;;;;;;;9.23;4.87;;;;;;;26.58;55.42;98202.19;4372181;32;34941;-74
2023/08/29 03:25:40;;;;;;;13.00;5.72;;;;;;;26.60;55.50;98194.56;4366999;32;34539;-73
2023/08/29 03:28:08;;;;;;;14.30;5.40;;;;;;;26.59;55.49;98196.47;4369454;32;34884;-73
2023/08/29 03:30:36;;;;;;;9.18;4.53;;;;;;;26.60;55.29;98200.88;4369613;32;34170;-73
2023/08/29 03:33:05;;;;;;;9.45;5.22;;;;;;;26.65;55.02;98206.44;4367870;32;33747;-73
2023/08/29 03:35:32;;;;;;;10.27;4.35;;;;;;;26.61;55.12;98208.03;4373359;32;33398;-73
2023/08/29 03:38:00;;;;;;;7.50;4.55;;;;;;;26.47;55.37;98198.47;4366076;32;33429;-72
2023/08/29 03:40:28;;;;;;;9.77;3.87;;;;;;;26.53;55.28;98191.19;4368474;32;35145;-72
2023/08/29 03:42:55;;;;;;;10.15;6.30;;;;;;;26.53;55.54;98199.41;4370543;32;34026;-72
2023/08/29 03:45:23;;;;;;;10.43;4.03;;;;;;;26.43;55.57;98187.19;4371606;32;33631;-71
2023/08/29 03:47:51;;;;;;;7.90;4.53;;;;;;;26.54;55.37;98184.59;4368912;32;34563;-71
2023/08/29 03:50:19;;;;;;;10.65;4.87;;;;;;;26.59;55.05;98193.72;4369361;32;33714;-71
2023/08/29 03:52:48;;;;;;;12.55;5.00;;;;;;;26.61;54.90;98196.19;4372062;32;34284;-71
2023/08/29 03:55:16;;;;;;;7.95;4.22;;;;;;;26.62;55.06;98189.66;4365551;32;34855;-70
2023/08/29 03:57:44;;;;;;;10.65;4.53;;;;;;;26.64;55.03;98177.31;4372198;32;33910;-70
2023/08/29 04:00:13;;;;;;;9.50;4.82;;;;;;;26.59;55.27;98188.25;4372474;32;33998;-71
2023/08/29 04:02:42;;;;;;;7.72;4.47;;;;;;;26.57;55.13;98181.34;4367584;32;33264;-76
2023/08/29 04:05:14;;;;;;;6.87;3.78;;;;;;;26.56;54.95;98180.53;4367973;32;33336;-76
2023/08/29 04:07:44;;;;;;;9.35;4.62;;;;;;;26.56;54.74;98190.66;4369500;32;33955;-77
2023/08/29 04:10:12;;;;;;;6.62;4.40;;;;;;;26.54;54.93;98198.31;4371802;32;33598;-75
2023/08/29 04:12:39;;;;;;;9.57;4.90;;;;;;;26.47;54.83;98198.47;4373715;32;33113;-74
2023/08/29 04:15:08;;;;;;;7.68;3.72;;;;;;;25.66;56.91;98200.88;4373859;32;33667;-76
2023/08/29 04:17:35;;;;;;;6.15;3.62;;;;;;;26.08;55.68;98204.00;4370086;32;34403;-72
2023/08/29 04:20:08;;;;;;;13.02;6.18;;;;;;;26.01;55.91;98208.84;4367285;32;33628;-75
2023/08/29 04:22:36;;;;;;;10.20;5.18;;;;;;;26.12;55.61;98215.28;4369386;32;35457;-75
2023/08/29 04:25:07;;;;;;;8.30;4.78;;;;;;;26.16;55.33;98217.28;4373283;32;32761;-75
2023/08/29 04:27:35;;;;;;;7.62;4.47;;;;;;;25.76;56.49;98234.72;4374394;32;33524;-76
2023/08/29 04:30:04;;;;;;;8.18;5.10;;;;;;;25.95;56.04;98229.03;4373857;32;34935;-74
2023/08/29 04:32:34;;;;;;;9.73;4.35;;;;;;;25.66;56.77;98231.84;4371455;32;33903;-75
2023/08/29 04:35:06;;;;;;;13.70;4.00;;;;;;;25.96;56.22;98236.97;4373880;32;33459;-76
2023/08/29 04:37:34;;;;;;;15.90;3.92;;;;;;;25.89;56.44;98233.59;4369790;32;33863;-74
2023/08/29 04:40:06;;;;;;;8.05;5.57;;;;;;;26.05;55.94;98228.34;4369606;32;34005;-75
2023/08/29 04:42:34;;;;;;;10.30;5.00;;;;;;;25.94;55.92;98238.31;4372191;32;34232;-75
2023/08/29 04:45:04;;;;;;;8.40;5.35;;;;;;;25.97;55.89;98224.09;4374738;32;33333;-76
2023/08/29 04:47:32;;;;;;;6.90;3.12;;;;;;;25.83;56.25;98225.53;4372595;32;32715;-75
2023/08/29 04:50:00;;;;;;;8.18;4.80;;;;;;;25.93;56.04;98242.16;4373445;32;33931;-75
2023/08/29 04:52:29;;;;;;;7.65;3.75;;;;;;;26.03;56.02;98228.59;4373456;32;34156;-76
2023/08/29 04:54:57;;;;;;;8.93;4.65;;;;;;;26.14;55.85;98238.63;4376278;32;33737;-75
2023/08/29 04:57:25;;;;;;;8.80;4.50;;;;;;;26.12;56.20;98243.53;4376345;32;34805;-76
2023/08/29 04:59:53;;;;;;;10.65;5.12;;;;;;;26.00;56.26;98249.13;4375481;32;34210;-75
2023/08/29 05:02:22;;;;;;;9.90;4.87;;;;;;;25.90;56.86;98259.91;4370635;32;34059;-70
2023/08/29 05:04:49;;;;;;;12.50;3.78;;;;;;;26.18;56.11;98258.16;4375002;32;33266;-72
2023/08/29 05:07:18;;;;;;;11.20;4.40;;;;;;;26.22;56.41;98262.03;4374281;32;33786;-72
2023/08/29 05:09:46;;;;;;;9.70;4.20;;;;;;;26.17;56.52;98253.75;4364617;32;34201;-73
2023/08/29 05:12:16;;;;;;;9.40;5.37;;;;;;;25.97;57.11;98265.22;4373265;32;35706;-72
2023/08/29 05:14:44;;;;;;;10.13;6.15;;;;;;;25.91;56.98;98275.31;4368559;32;33356;-73
2023/08/29 05:17:11;;;;;;;7.97;4.22;;;;;;;26.08;56.78;98266.22;4373114;32;33914;-73
2023/08/29 05:19:40;;;;;;;8.80;5.75;;;;;;;25.71;57.24;98264.78;4375367;32;35049;-72
2023/08/29 05:22:08;;;;;;;8.48;4.35;;;;;;;25.96;56.49;98286.31;4373553;32;33961;-74
2023/08/29 05:24:36;;;;;;;16.35;7.05;;;;;;;25.97;56.32;98295.38;4373371;32;34377;-74
2023/08/29 05:27:04;;;;;;;12.73;6.62;;;;;;;26.07;56.43;98284.59;4373804;32;35248;-75
2023/08/29 05:29:31;;;;;;;9.82;5.28;;;;;;;26.15;56.75;98292.38;4371792;32;33788;-75
2023/08/29 05:31:59;;;;;;;9.38;4.72;;;;;;;26.17;56.58;98297.62;4372622;32;34231;-75
2023/08/29 05:34:27;;;;;;;9.77;6.32;;;;;;;26.46;56.11;98299.16;4363857;32;33447;-75
2023/08/29 05:36:56;;;;;;;9.05;4.22;;;;;;;26.14;56.57;98307.19;4374072;32;34866;-75
2023/08/29 05:39:23;;;;;;;12.68;6.80;;;;;;;26.11;57.70;98277.53;4374724;32;34217;-75
2023/08/29 05:41:51;;;;;;;9.48;4.85;;;;;;;26.43;57.12;98265.91;4361973;32;33746;-75
2023/08/29 05:44:18;;;;;;;5.87;3.67;;;;;;;26.52;57.30;98269.91;4371302;32;33405;-75
2023/08/29 05:46:46;;;;;;;12.68;5.50;;;;;;;27.17;55.93;98268.25;4375305;32;33391;-75
2023/08/29 05:49:15;;;;;;;11.07;4.55;;;;;;;27.30;55.82;98259.59;4366596;32;33518;-75
2023/08/29 05:51:42;;;;;;;5.75;4.18;;;;;;;26.81;57.09;98232.13;4374729;32;34380;-75
2023/08/29 05:54:10;;;;;;;12.45;7.00;;;;;;;27.05;56.13;98249.13;4375726;32;34137;-75
2023/08/29 05:56:38;;;;;;;11.73;6.55;;;;;;;26.43;58.12;98247.53;4372678;32;34760;-75
2023/08/29 05:59:05;;;;;;;6.70;3.70;;;;;;;26.41;58.26;98246.13;4365202;32;32729;-74
2023/08/29 06:01:35;;;;;;;11.93;6.20;;;;;;;26.87;56.68;98274.19;4369114;32;33690;-75
2023/08/29 06:04:04;;;;;;;9.77;4.80;;;;;;;26.73;57.26;98267.44;4362598;32;33546;-75
2023/08/29 06:06:32;;;;;;;15.35;8.20;;;;;;;26.34;59.42;98292.13;4362763;32;33510;-74
2023/08/29 06:08:59;;;;;;;11.18;6.97;;;;;;;26.64;58.20;98292.56;4370457;32;34114;-75
2023/08/29 06:11:29;;;;;;;8.85;5.80;;;;;;;26.64;58.36;98310.94;4365922;32;35013;-74
2023/08/29 06:13:56;;;;;;;7.22;4.22;;;;;;;26.32;59.53;98281.38;4374641;32;33343;-74
2023/08/29 06:16:24;;;;;;;7.80;4.12;;;;;;;26.61;58.81;98249.19;4373199;32;33510;-75
2023/08/29 06:18:52;;;;;;;17.45;6.35;;;;;;;26.07;60.76;98229.75;4368780;32;33796;-74
2023/08/29 06:21:20;;;;;;;9.25;5.62;;;;;;;25.84;61.55;98238.97;4366528;32;34656;-75
2023/08/29 06:23:47;;;;;;;11.52;5.47;;;;;;;26.27;60.26;98272.28;4355045;32;33845;-74
2023/08/29 06:26:15;;;;;;;12.70;6.20;;;;;;;26.35;60.06;98277.31;4359428;32;31979;-75
2023/08/29 06:28:43;;;;;;;15.68;5.90;;;;;;;26.48;59.63;98288.81;4371658;32;34442;-74
2023/08/29 06:31:11;;;;;;;9.30;5.07;;;;;;;26.47;59.73;98283.53;4372162;32;34829;-74
2023/08/29 06:33:39;;;;;;;10.85;5.90;;;;;;;26.57;59.47;98275.44;4372080;32;33437;-74
2023/08/29 06:36:07;;;;;;;13.82;6.78;;;;;;;26.59;59.67;98276.03;4359603;32;33393;-74
2023/08/29 06:38:35;;;;;;;15.10;6.28;;;;;;;26.55;60.05;98280.38;4364763;32;34650;-74
2023/08/29 06:41:04;;;;;;;16.25;6.68;;;;;;;26.59;60.03;98265.06;4374049;32;34818;-74
2023/08/29 06:43:32;;;;;;;11.77;6.05;;;;;;;26.40;60.66;98267.25;4368649;32;32467;-75
2023/08/29 06:45:59;;;;;;;13.27;5.07;;;;;;;26.38;61.16;98294.09;4374874;32;35045;-74
2023/08/29 06:48:27;;;;;;;8.30;4.30;;;;;;;26.24;60.35;98304.59;4371366;32;35378;-75
2023/08/29 06:50:55;;;;;;;11.60;4.65;;;;;;;26.37;59.70;98294.34;4374943;32;35316;-75
2023/08/29 06:53:25;;;;;;;12.80;6.18;;;;;;;26.39;59.68;98300.44;4366380;32;33498;-75
2023/08/29 06:55:53;;;;;;;11.55;5.57;;;;;;;26.34;59.32;98319.53;4371772;32;34260;-75
2023/08/29 06:58:20;;;;;;;11.27;5.68;;;;;;;26.11;59.85;98359.78;4367245;32;34091;-75
2023/08/29 07:00:48;;;;;;;14.45;5.90;;;;;;;25.96;60.48;98389.66;4366798;32;35241;-75
2023/08/29 07:03:16;;;;;;;11.73;7.07;;;;;;;25.94;59.91;98414.59;4362909;32;116724;-73
2023/08/29 07:05:43;;;;;;;15.82;4.87;;;;;;;23.79;63.03;98414.34;4375022;32;33180;-74
2023/08/29 07:08:11;;;;;;;11.25;4.12;;;;;;;23.11;65.81;98406.38;4373857;32;33980;-74
2023/08/29 07:10:39;;;;;;;8.10;4.60;;;;;;;23.11;66.19;98406.38;4372138;32;33839;-74
2023/08/29 07:13:06;;;;;;;12.48;7.35;;;;;;;22.97;66.29;98401.06;4372794;32;33567;-73
2023/08/29 07:15:34;;;;;;;11.38;6.65;;;;;;;23.03;66.44;98399.34;4372095;32;33275;-74
2023/08/29 07:18:05;;;;;;;11.63;7.40;;;;;;;22.68;66.67;98405.34;4372846;32;34937;-74
2023/08/29 07:20:33;;;;;;;15.48;6.60;;;;;;;22.70;66.75;98408.69;4373591;32;35117;-76
2023/08/29 07:23:01;;;;;;;8.23;4.40;;;;;;;23.39;64.52;98403.91;4369213;32;33554;-74
2023/08/29 07:25:39;;;;;;;12.07;4.85;;;;;;;23.41;65.29;98381.88;4363231;32;34152;-75
2023/08/29 07:28:09;;;;;;;8.18;4.93;;;;;;;23.82;63.70;98380.25;4340134;33;33538;-76
2023/08/29 07:30:45;;;;;;;13.15;5.18;;;;;;;24.30;62.52;98387.47;4332665;33;33850;-76
2023/08/29 07:33:19;;;;;;;12.90;7.28;;;;;;;24.36;62.25;98387.34;4339916;32;33155;-77
2023/08/29 07:35:48;;;;;;;9.15;4.00;;;;;;;24.56;61.44;98391.69;4341606;33;35170;-77
2023/08/29 07:38:17;;;;;;;14.70;4.50;;;;;;;24.72;61.23;98385.50;4339371;32;34059;-79
2023/08/29 07:40:48;;;;;;;12.85;6.07;;;;;;;24.90;60.46;98370.81;4340784;33;33339;-79
2023/08/29 07:43:15;;;;;;;9.95;6.10;;;;;;;24.90;61.03;98372.72;4343337;33;33388;-79
2023/08/29 07:45:45;;;;;;;8.13;4.22;;;;;;;24.85;61.17;98368.00;4340755;32;33905;-78
2023/08/29 07:48:12;;;;;;;13.57;5.12;;;;;;;24.99;60.21;98346.66;4340746;32;33604;-79
2023/08/29 07:50:40;;;;;;;13.90;5.28;;;;;;;25.02;60.25;98338.78;4337531;32;34045;-77
2023/08/29 07:53:08;;;;;;;9.45;4.40;;;;;;;24.68;61.43;98328.75;4342372;32;34455;-77
2023/08/29 07:55:35;;;;;;;6.85;4.03;;;;;;;24.90;60.15;98324.31;4340321;33;33921;-76
2023/08/29 07:58:03;;;;;;;9.20;4.20;;;;;;;25.13;59.82;98326.16;4338925;32;34083;-76
2023/08/29 08:00:32;;;;;;;12.30;5.05;;;;;;;25.18;59.96;98319.97;4367292;32;34100;-73
2023/08/29 08:03:00;;;;;;;16.23;6.22;;;;;;;25.23;59.62;98329.13;4372962;32;34653;-73
2023/08/29 08:05:28;;;;;;;13.18;5.90;;;;;;;25.23;60.17;98361.97;4373363;32;34534;-74
2023/08/29 08:07:56;;;;;;;15.43;5.57;;;;;;;25.12;61.06;98384.75;4369628;32;34212;-74
2023/08/29 08:10:24;;;;;;;7.72;3.85;;;;;;;25.08;61.16;98386.28;4368466;32;35193;-76
2023/08/29 08:12:52;;;;;;;13.75;5.28;;;;;;;25.23;60.65;98383.88;4374259;32;33530;-76
2023/08/29 08:15:20;;;;;;;9.68;5.30;;;;;;;25.36;60.07;98384.66;4359951;32;34892;-77
2023/08/29 08:17:48;;;;;;;14.43;4.93;;;;;;;25.35;60.49;98389.31;4374948;32;32670;-76
2023/08/29 08:20:16;;;;;;;10.00;4.57;;;;;;;25.30;60.35;98384.56;4375902;32;33813;-77
2023/08/29 08:22:44;;;;;;;9.82;4.97;;;;;;;25.43;60.02;98388.13;4373382;32;32423;-77
2023/08/29 08:25:12;;;;;;;11.70;4.65;;;;;;;25.35;60.22;98392.03;4366270;32;33834;-77
2023/08/29 08:27:42;;;;;;;10.43;5.00;;;;;;;25.42;60.15;98387.25;4373499;32;33789;-76
2023/08/29 08:30:10;;;;;;;10.48;5.07;;;;;;;25.52;59.85;98400.31;4373236;32;34860;-77
2023/08/29 08:32:38;;;;;;;13.15;4.37;;;;;;;25.36;59.94;98409.31;4375390;32;33379;-80
2023/08/29 08:35:08;;;;;;;12.00;5.40;;;;;;;25.41;59.71;98417.63;4375349;32;35134;-79
2023/08/29 08:37:36;;;;;;;13.27;4.50;;;;;;;25.37;59.58;98425.50;4371668;32;33625;-76
2023/08/29 08:40:10;;;;;;;8.25;4.55;;;;;;;25.12;60.76;98436.75;4371382;32;33802;-77
2023/08/29 08:42:43;;;;;;;8.60;4.68;;;;;;;24.78;62.06;98438.41;4372055;32;33483;-77
2023/08/29 08:45:11;;;;;;;14.55;6.00;;;;;;;24.57;63.01;98437.94;4374392;32;33584;-76
2023/08/29 08:47:39;;;;;;;10.43;5.05;;;;;;;24.40;63.68;98451.44;4373935;32;33976;-71
2023/08/29 08:50:08;;;;;;;9.40;5.25;;;;;;;24.35;64.00;98464.97;4369111;32;35259;-70
2023/08/29 08:52:38;;;;;;;17.15;4.72;;;;;;;24.30;64.18;98475.81;4372418;32;35066;-70
2023/08/29 08:55:06;;;;;;;9.18;3.75;;;;;;;24.43;63.95;98491.22;4371967;32;34949;-69
2023/08/29 08:57:34;;;;;;;11.12;4.47;;;;;;;24.38;63.92;98497.31;4373754;32;35283;-70
2023/08/29 09:00:02;;;;;;;14.30;5.70;;;;;;;23.83;65.62;98499.41;4370470;32;35286;-70
2023/08/29 09:02:32;;;;;;;9.88;5.72;;;;;;;23.73;65.34;98482.72;4356539;32;34843;-70
2023/08/29 09:05:00;;;;;;;12.32;4.43;;;;;;;23.80;65.53;98480.75;4326595;33;32778;-70
2023/08/29 09:07:28;;;;;;;7.50;4.53;;;;;;;24.05;64.92;98467.78;4319969;33;34936;-70
2023/08/29 09:10:11;;;;;;;4.72;2.85;;;;;;;23.75;66.14;98461.47;4327133;32;33789;-70
2023/08/29 09:12:50;;;;;;;11.63;5.62;;;;;;;23.66;66.01;98444.56;4324848;33;33426;-69
2023/08/29 09:15:19;;;;;;;9.23;5.15;;;;;;;23.43;66.82;98439.78;4328333;33;34912;-68
2023/08/29 09:17:51;;;;;;;12.25;3.65;;;;;;;23.66;66.57;98430.91;4327562;33;33970;-69
2023/08/29 09:20:20;;;;;;;9.57;4.22;;;;;;;23.50;66.78;98413.25;4323489;33;34071;-69
2023/08/29 09:22:48;;;;;;;9.50;6.22;;;;;;;23.65;66.07;98401.91;4326629;33;33460;-70
2023/08/29 09:25:16;;;;;;;8.63;4.30;;;;;;;23.24;67.33;98398.88;4327826;33;34885;-70
2023/08/29 09:27:47;;;;;;;9.15;4.70;;;;;;;23.46;66.87;98404.66;4322316;33;32751;-69
2023/08/29 09:30:16;;;;;;;6.82;4.28;;;;;;;23.81;65.83;98386.78;4323043;33;35221;-71
2023/08/29 09:32:45;;;;;;;9.18;4.25;;;;;;;23.86;64.84;98390.47;4326482;33;33205;-70
2023/08/29 09:35:15;;;;;;;8.55;4.22;;;;;;;24.00;64.63;98398.47;4332953;32;33637;-70
2023/08/29 09:37:50;;;;;;;7.45;3.53;;;;;;;23.94;65.02;98373.75;4378661;32;34006;-71
2023/08/29 09:40:20;;;;;;;11.30;4.75;;;;;;;23.79;65.53;98346.03;4370436;32;33812;-71
2023/08/29 09:43:05;;;;;;;9.13;5.50;;;;;;;23.43;67.18;98349.69;4367301;32;34703;-69
2023/08/29 09:45:33;;;;;;;9.30;4.47;;;;;;;23.52;67.22;98326.44;4373685;32;34676;-69
2023/08/29 09:48:02;;;;;;;13.82;4.32;;;;;;;23.41;67.74;98330.00;4374270;32;33599;-69
2023/08/29 09:50:30;;;;;;;9.68;4.30;;;;;;;23.47;67.70;98329.88;4366986;32;33728;-70
2023/08/29 09:52:59;;;;;;;9.43;4.35;;;;;;;23.92;66.32;98329.44;4369351;32;33518;-70
2023/08/29 09:55:32;;;;;;;10.00;6.22;;;;;;;23.53;66.80;98310.88;4367120;32;33368;-69
2023/08/29 09:58:01;;;;;;;9.25;4.30;;;;;;;23.48;67.22;98314.34;4356985;32;34887;-70
2023/08/29 10:00:29;;;;;;;10.48;5.20;;;;;;;23.31;68.08;98308.72;4368001;32;35159;-70
2023/08/29 10:02:58;;;;;;;6.93;4.30;;;;;;;23.59;66.67;98307.22;4359213;32;34469;-71
2023/08/29 10:05:29;;;;;;;9.10;4.90;;;;;;;23.58;67.12;98308.31;4359235;32;33677;-69
2023/08/29 10:07:59;;;;;;;8.63;4.25;;;;;;;23.65;67.06;98306.31;4362215;32;34033;-69
2023/08/29 10:10:27;;;;;;;11.18;6.20;;;;;;;23.68;66.75;98308.56;4359176;32;34962;-69
2023/08/29 10:12:55;;;;;;;12.98;4.60;;;;;;;23.86;66.12;98305.78;4370681;32;33200;-69
2023/08/29 10:15:23;;;;;;;17.33;6.05;;;;;;;23.94;66.43;98307.31;4371481;32;34098;-70
2023/08/29 10:17:51;;;;;;;7.85;4.72;;;;;;;24.20;65.22;98322.44;4372211;32;34922;-70
2023/08/29 10:20:19;;;;;;;11.50;4.93;;;;;;;24.39;64.87;98321.25;4363812;32;34700;-70
2023/08/29 10:22:48;;;;;;;10.90;4.80;;;;;;;24.27;65.24;98331.37;4372748;32;34104;-68
2023/08/29 10:25:18;;;;;;;9.20;3.58;;;;;;;24.31;65.04;98340.75;4376272;32;33477;-69
2023/08/29 10:27:46;;;;;;;10.70;3.95;;;;;;;24.41;64.49;98337.47;4376237;32;35225;-70
2023/08/29 10:30:14;;;;;;;9.52;4.82;;;;;;;24.12;65.21;98355.59;4362027;32;34657;-70
2023/08/29 10:32:43;;;;;;;7.43;3.83;;;;;;;23.96;65.63;98362.59;4360294;32;33213;-69
2023/08/29 10:35:18;;;;;;;24.52;6.25;;;;;;;23.42;67.89;98370.69;4342470;32;34012;-70
2023/08/29 10:37:50;;;;;;;9.32;5.03;;;;;;;23.17;68.80;98359.06;4343617;33;33556;-69
2023/08/29 10:40:19;;;;;;;5.87;4.00;;;;;;;22.69;70.17;98348.91;4342002;32;33896;-69
2023/08/29 10:42:53;;;;;;;10.07;5.32;;;;;;;22.66;70.81;98339.28;4342441;32;33375;-71
2023/08/29 10:45:22;;;;;;;8.45;4.15;;;;;;;22.23;71.32;98345.59;4338434;32;33935;-70
2023/08/29 10:47:52;;;;;;;14.52;3.95;;;;;;;22.73;69.70;98339.22;4344895;32;34482;-70
2023/08/29 10:50:23;;;;;;;10.95;4.70;;;;;;;22.90;69.46;98345.72;4342814;32;33803;-71
2023/08/29 10:52:56;;;;;;;9.10;4.95;;;;;;;22.48;69.65;98342.00;4336533;32;34997;-70
2023/08/29 10:55:27;;;;;;;17.98;3.42;;;;;;;23.03;68.94;98322.94;4339934;32;33864;-71
2023/08/29 10:57:58;;;;;;;7.07;4.70;;;;;;;23.58;68.35;98317.31;4334515;32;34359;-70
2023/08/29 11:00:41;;;;;;;8.02;4.32;;;;;;;23.64;68.73;98307.38;4341323;32;35195;-70
2023/08/29 11:03:09;;;;;;;6.57;3.08;;;;;;;23.79;67.49;98299.59;4340850;32;33599;-69
2023/08/29 11:05:38;;;;;;;10.80;4.03;;;;;;;24.02;65.66;98298.78;4342894;32;34528;-70
2023/08/29 11:08:22;;;;;;;7.32;3.50;;;;;;;24.12;64.65;98284.53;4368931;32;33763;-70
2023/08/29 11:11:12;;;;;;;8.35;4.62;;;;;;;24.21;64.92;98277.66;4368404;32;33746;-69
2023/08/29 11:14:08;;;;;;;8.68;4.35;;;;;;;24.07;65.45;98265.28;4364595;32;33670;-69
2023/08/29 11:16:41;;;;;;;9.30;3.60;;;;;;;24.34;64.39;98271.09;4364733;32;33927;-69
2023/08/29 11:19:13;;;;;;;8.88;4.65;;;;;;;23.95;65.43;98278.97;4371760;32;34281;-68
2023/08/29 11:21:45;;;;;;;7.05;3.90;;;;;;;24.63;65.22;98277.50;4367118;32;34914;-68
2023/08/29 11:24:12;;;;;;;15.02;4.10;;;;;;;25.17;61.26;98271.75;4370207;32;34678;-70
2023/08/29 11:26:45;;;;;;;5.95;3.25;;;;;;;24.62;62.63;98275.81;4369850;32;32813;-70
2023/08/29 11:29:13;;;;;;;11.73;5.00;;;;;;;24.86;61.48;98280.19;4370789;32;33606;-70
2023/08/29 11:31:45;;;;;;;5.93;3.65;;;;;;;24.71;62.02;98284.50;4371381;32;35132;-71
2023/08/29 11:34:18;;;;;;;8.57;5.03;;;;;;;25.56;59.62;98289.19;4374829;32;34487;-71
2023/08/29 11:36:48;;;;;;;6.35;4.18;;;;;;;25.71;58.65;98280.41;4372177;32;33937;-70
2023/08/29 11:39:19;;;;;;;8.40;3.90;;;;;;;25.69;59.47;98277.09;4371229;32;33639;-70